createdAt,value
2023-05-05T00:00:47.204Z,11.48
2023-05-05T00:03:36.989Z,13.20
2023-05-05T00:06:28.453Z,9.35
2023-05-05T00:09:22.572Z,10.15
2023-05-05T00:12:10.234Z,9.05
2023-05-05T00:15:00.067Z,8.88
2023-05-05T00:17:47.479Z,8.88
2023-05-05T00:20:37.128Z,9.30
2023-05-05T00:23:24.678Z,7.15
2023-05-05T00:26:13.261Z,8.35
2023-05-05T00:29:06.494Z,10.00
2023-05-05T00:31:54.112Z,13.80
2023-05-05T00:34:41.924Z,11.18
2023-05-05T00:37:31.410Z,12.18
2023-05-05T00:40:19.229Z,12.23
2023-05-05T00:43:08.302Z,12.43
2023-05-05T00:46:03.074Z,12.23
2023-05-05T00:48:54.056Z,12.73
2023-05-05T00:51:43.773Z,13.38
2023-05-05T00:54:33.343Z,14.38
2023-05-05T00:57:20.792Z,15.27
2023-05-05T01:00:12.238Z,14.35
2023-05-05T01:03:00.065Z,11.15
2023-05-05T01:05:56.909Z,13.65
2023-05-05T01:09:01.933Z,11.52
2023-05-05T01:11:59.897Z,11.40
2023-05-05T01:15:06.781Z,9.80
2023-05-05T01:17:59.747Z,9.60
2023-05-05T01:20:58.991Z,11.30
2023-05-05T01:24:08.092Z,10.38
2023-05-05T01:27:18.125Z,6.72
2023-05-05T01:30:28.690Z,6.75
2023-05-05T01:36:13.654Z,10.25
2023-05-05T01:39:03.101Z,10.40
2023-05-05T01:41:54.364Z,6.15
2023-05-05T01:44:44.200Z,6.78
2023-05-05T01:47:32.305Z,6.63
2023-05-05T01:50:23.308Z,7.88
2023-05-05T01:53:11.710Z,9.85
2023-05-05T01:56:00.153Z,8.02
2023-05-05T01:58:49.218Z,6.57
2023-05-05T02:01:41.800Z,5.82
2023-05-05T02:04:31.863Z,8.57
2023-05-05T02:07:23.460Z,5.35
2023-05-05T02:10:13.739Z,7.18
2023-05-05T02:13:05.398Z,9.25
2023-05-05T02:15:55.538Z,7.03
2023-05-05T02:18:48.457Z,7.15
2023-05-05T02:21:36.566Z,8.73
2023-05-05T02:24:28.489Z,8.35
2023-05-05T02:27:21.706Z,6.78
2023-05-05T02:30:15.257Z,7.35
2023-05-05T02:33:09.263Z,7.00
2023-05-05T02:35:57.590Z,7.97
2023-05-05T02:38:48.643Z,7.63
2023-05-05T02:41:39.537Z,5.60
2023-05-05T02:44:32.453Z,6.45
2023-05-05T02:47:23.162Z,7.95
2023-05-05T02:50:13.389Z,5.95
2023-05-05T02:53:01.215Z,8.15
2023-05-05T02:55:53.758Z,7.90
2023-05-05T02:58:51.233Z,4.90
2023-05-05T03:02:00.309Z,6.18
2023-05-05T03:04:52.265Z,4.65
2023-05-05T03:07:52.298Z,9.30
2023-05-05T03:10:49.222Z,7.57
2023-05-05T03:13:40.985Z,5.60
2023-05-05T03:16:35.161Z,11.90
2023-05-05T03:19:24.732Z,8.65
2023-05-05T03:22:16.538Z,8.38
2023-05-05T03:25:04.745Z,7.25
2023-05-05T03:27:55.122Z,7.32
2023-05-05T03:30:43.231Z,6.32
2023-05-05T03:33:32.632Z,9.68
2023-05-05T03:36:20.119Z,9.13
2023-05-05T03:39:11.151Z,8.15
2023-05-05T03:41:59.112Z,8.77
2023-05-05T03:44:47.467Z,7.00
2023-05-05T03:47:59.196Z,11.52
2023-05-05T03:50:48.977Z,10.48
2023-05-05T03:53:36.879Z,9.20
2023-05-05T03:56:27.125Z,11.27
2023-05-05T03:59:17.357Z,9.32
2023-05-05T04:02:23.369Z,13.30
2023-05-05T04:09:09.703Z,15.20
2023-05-05T04:12:11.031Z,15.52
2023-05-05T04:15:08.928Z,15.20
2023-05-05T04:17:56.238Z,17.70
2023-05-05T04:20:43.673Z,17.33
2023-05-05T04:23:32.599Z,17.73
2023-05-05T04:26:19.921Z,16.20
2023-05-05T04:29:09.917Z,15.18
2023-05-05T04:31:58.343Z,20.05
2023-05-05T04:34:45.624Z,19.85
2023-05-05T04:37:33.051Z,22.17
2023-05-05T04:40:20.490Z,24.50
2023-05-05T04:43:07.950Z,26.85
2023-05-05T04:45:56.673Z,24.17
2023-05-05T04:48:44.300Z,19.73
2023-05-05T04:51:32.246Z,22.63
2023-05-05T04:54:22.096Z,21.20
2023-05-05T04:57:09.883Z,20.13
2023-05-05T04:59:57.404Z,19.83
2023-05-05T05:02:46.382Z,20.10
2023-05-05T05:05:36.686Z,20.67
2023-05-05T05:08:24.243Z,22.67
2023-05-05T05:11:12.181Z,19.38
2023-05-05T05:13:59.765Z,19.92
2023-05-05T05:16:56.705Z,21.92
2023-05-05T05:19:45.300Z,21.00
2023-05-05T05:22:33.021Z,19.00
2023-05-05T05:25:20.399Z,21.10
2023-05-05T05:28:10.064Z,18.08
2023-05-05T05:30:58.566Z,20.40
2023-05-05T05:33:46.405Z,18.80
2023-05-05T05:36:35.363Z,18.27
2023-05-05T05:39:27.300Z,20.40
2023-05-05T05:42:14.628Z,17.65
2023-05-05T05:45:02.336Z,19.52
2023-05-05T05:47:55.375Z,17.23
2023-05-05T05:50:45.832Z,19.83
2023-05-05T05:53:37.934Z,17.55
2023-05-05T05:56:25.563Z,18.90
2023-05-05T05:59:12.770Z,22.52
2023-05-05T06:02:00.365Z,19.30
2023-05-05T06:04:48.144Z,20.80
2023-05-05T06:07:38.161Z,21.13
2023-05-05T06:10:28.458Z,24.45
2023-05-05T06:13:16.255Z,17.85
2023-05-05T06:16:03.725Z,17.42
2023-05-05T06:18:51.399Z,15.68
2023-05-05T06:21:38.725Z,19.35
2023-05-05T06:24:29.374Z,15.52
2023-05-05T06:27:20.808Z,15.13
2023-05-05T06:30:14.888Z,15.90
2023-05-05T06:33:02.383Z,15.32
2023-05-05T06:35:51.934Z,14.25
2023-05-05T06:38:39.253Z,12.93
2023-05-05T06:41:26.620Z,10.75
2023-05-05T06:44:15.320Z,10.82
2023-05-05T06:47:08.119Z,16.10
2023-05-05T06:49:55.573Z,13.52
2023-05-05T06:52:49.322Z,10.38
2023-05-05T06:55:37.031Z,13.13
2023-05-05T06:58:24.539Z,11.00
2023-05-05T07:01:13.991Z,11.85
2023-05-05T07:04:04.718Z,10.60
2023-05-05T07:06:52.340Z,8.45
2023-05-05T07:09:50.856Z,10.50
2023-05-05T07:12:38.620Z,10.77
2023-05-05T07:15:29.270Z,9.95
2023-05-05T07:18:20.933Z,9.05
2023-05-05T07:21:08.515Z,7.68
2023-05-05T07:24:41.212Z,5.10
2023-05-05T07:27:43.286Z,5.95
2023-05-05T07:30:33.577Z,5.90
2023-05-05T07:33:22.546Z,5.70
2023-05-05T07:36:12.842Z,4.03
2023-05-05T07:39:03.635Z,4.60
2023-05-05T07:41:52.865Z,4.97
2023-05-05T07:44:43.369Z,4.32
2023-05-05T07:47:31.305Z,2.75
2023-05-05T07:50:20.763Z,4.30
2023-05-05T07:53:14.559Z,3.67
2023-05-05T07:56:06.391Z,4.45
2023-05-05T07:58:53.883Z,2.85
2023-05-05T08:01:41.801Z,2.83
2023-05-05T08:04:29.796Z,4.00
2023-05-05T08:07:18.699Z,4.05
2023-05-05T08:10:09.010Z,4.38
2023-05-05T08:12:56.855Z,4.28
2023-05-05T08:15:45.247Z,3.90
2023-05-05T08:18:34.537Z,5.20
2023-05-05T08:21:22.496Z,5.95
2023-05-05T08:24:11.783Z,6.05
2023-05-05T08:27:01.709Z,5.53
2023-05-05T08:29:49.256Z,5.72
2023-05-05T08:32:36.895Z,2.65
2023-05-05T08:35:26.472Z,2.83
2023-05-05T08:38:14.249Z,3.33
2023-05-05T08:41:04.129Z,5.28
2023-05-05T08:43:51.642Z,3.65
2023-05-05T08:46:40.268Z,4.05
2023-05-05T08:49:32.053Z,2.55
2023-05-05T08:52:26.841Z,2.45
2023-05-05T08:55:21.352Z,2.80
2023-05-05T08:58:14.644Z,2.25
2023-05-05T09:01:02.586Z,4.13
2023-05-05T09:03:52.555Z,2.10
2023-05-05T09:06:40.902Z,3.20
2023-05-05T09:09:29.490Z,1.85
2023-05-05T09:12:21.787Z,2.30
2023-05-05T09:15:12.972Z,3.03
2023-05-05T09:18:05.274Z,4.05
2023-05-05T09:20:56.052Z,2.97
2023-05-05T09:27:02.763Z,4.65
2023-05-05T09:29:51.339Z,2.22
2023-05-05T09:32:49.312Z,1.23
2023-05-05T09:35:53.676Z,3.03
2023-05-05T09:38:41.380Z,2.63
2023-05-05T09:41:39.708Z,2.40
2023-05-05T09:47:39.811Z,2.97
2023-05-05T09:50:43.498Z,2.22
2023-05-05T09:53:39.810Z,3.25
2023-05-05T09:56:38.554Z,3.17
2023-05-05T09:59:26.365Z,2.83
2023-05-05T10:02:14.178Z,3.45
2023-05-05T10:05:10.042Z,3.25
2023-05-05T10:08:14.666Z,2.05
2023-05-05T10:11:07.451Z,4.32
2023-05-05T10:14:00.232Z,3.65
2023-05-05T10:16:52.189Z,1.85
2023-05-05T10:19:40.491Z,3.47
2023-05-05T10:22:30.812Z,2.10
2023-05-05T10:25:28.362Z,2.42
2023-05-05T10:28:22.233Z,3.28
2023-05-05T10:31:25.200Z,3.22
2023-05-05T10:34:24.344Z,2.17
2023-05-05T10:37:36.708Z,1.73
2023-05-05T10:40:26.113Z,1.90
2023-05-05T10:43:16.793Z,4.95
2023-05-05T10:46:05.076Z,1.80
2023-05-05T10:49:11.766Z,2.80
2023-05-05T10:52:14.208Z,2.95
2023-05-05T10:55:13.798Z,5.80
2023-05-05T10:58:02.619Z,2.83
2023-05-05T11:00:51.249Z,2.40
2023-05-05T11:03:56.198Z,2.20
2023-05-05T11:07:53.776Z,3.20
2023-05-05T11:10:44.868Z,4.32
2023-05-05T11:13:38.714Z,4.43
2023-05-05T11:16:48.012Z,3.25
2023-05-05T11:19:49.415Z,3.78
2023-05-05T11:23:11.115Z,4.05
2023-05-05T11:26:04.645Z,3.65
2023-05-05T11:28:59.903Z,2.90
2023-05-05T11:32:13.695Z,3.65
2023-05-05T11:35:06.380Z,3.95
2023-05-05T11:38:10.352Z,4.28
2023-05-05T11:41:04.344Z,3.10
2023-05-05T11:44:24.959Z,2.67
2023-05-05T11:47:28.230Z,3.10
2023-05-05T11:50:21.483Z,3.50
2023-05-05T11:53:09.513Z,3.55
2023-05-05T11:56:13.855Z,2.88
2023-05-05T11:59:09.820Z,5.78
2023-05-05T12:02:04.444Z,4.35
2023-05-05T12:04:58.957Z,5.30
2023-05-05T12:07:58.976Z,4.20
2023-05-05T12:10:47.321Z,4.60
2023-05-05T12:13:36.143Z,5.45
2023-05-05T12:16:23.754Z,4.55
2023-05-05T12:19:14.600Z,5.75
2023-05-05T12:22:05.596Z,4.80
2023-05-05T12:24:57.904Z,7.20
2023-05-05T12:30:39.816Z,8.05
2023-05-05T12:33:27.449Z,8.55
2023-05-05T12:36:16.784Z,9.23
2023-05-05T12:39:09.696Z,8.45
2023-05-05T12:42:03.389Z,8.23
2023-05-05T12:44:51.613Z,9.68
2023-05-05T12:47:44.350Z,9.90
2023-05-05T12:50:35.688Z,10.18
2023-05-05T12:53:25.834Z,9.63
2023-05-05T12:56:36.497Z,8.85
2023-05-05T12:59:30.738Z,8.40
2023-05-05T13:02:18.923Z,9.20
2023-05-05T13:05:08.763Z,20.30
2023-05-05T13:07:56.468Z,16.52
2023-05-05T13:11:20.232Z,20.35
2023-05-05T13:14:07.886Z,12.95
2023-05-05T13:17:04.502Z,15.25
2023-05-05T13:19:53.082Z,14.50
2023-05-05T13:22:40.550Z,13.43
2023-05-05T13:25:43.205Z,9.82
2023-05-05T13:28:34.341Z,13.35
2023-05-05T13:31:23.032Z,14.98
2023-05-05T13:34:11.129Z,12.82
2023-05-05T13:37:05.170Z,12.57
2023-05-05T13:39:52.816Z,10.52
2023-05-05T13:42:40.554Z,14.40
2023-05-05T13:45:33.723Z,9.45
2023-05-05T13:48:21.419Z,12.95
2023-05-05T13:51:09.568Z,11.20
2023-05-05T13:53:59.773Z,12.65
2023-05-05T13:56:47.023Z,12.55
2023-05-05T13:59:39.919Z,21.80
2023-05-05T14:02:38.561Z,12.88
2023-05-05T14:05:38.373Z,13.13
2023-05-05T14:08:40.101Z,13.40
2023-05-05T14:11:27.584Z,8.82
2023-05-05T14:14:15.222Z,11.48
2023-05-05T14:17:02.875Z,11.07
2023-05-05T14:19:52.243Z,10.52
2023-05-05T14:22:42.960Z,9.57
2023-05-05T14:25:30.878Z,9.93
2023-05-05T14:28:18.237Z,7.40
2023-05-05T14:31:06.557Z,8.30
2023-05-05T14:33:56.689Z,11.43
2023-05-05T14:36:45.925Z,7.95
2023-05-05T14:39:33.242Z,6.90
2023-05-05T14:42:20.863Z,6.60
2023-05-05T14:45:16.872Z,6.40
2023-05-05T14:48:22.945Z,7.05
2023-05-05T14:51:10.873Z,5.35
2023-05-05T14:54:00.006Z,6.25
2023-05-05T14:56:47.388Z,7.32
2023-05-05T15:00:04.289Z,6.85
2023-05-05T15:02:51.918Z,6.47
2023-05-05T15:05:51.667Z,4.43
2023-05-05T15:08:41.943Z,4.53
2023-05-05T15:11:30.820Z,2.80
2023-05-05T15:14:19.632Z,2.90
2023-05-05T15:17:30.405Z,3.20
2023-05-05T15:20:22.562Z,3.67
2023-05-05T15:23:10.341Z,4.68
2023-05-05T15:26:03.653Z,4.68
2023-05-05T15:28:55.297Z,4.43
2023-05-05T15:31:43.186Z,5.53
2023-05-05T15:34:31.369Z,5.50
2023-05-05T15:37:21.316Z,4.70
2023-05-05T15:40:12.771Z,4.88
2023-05-05T15:43:00.323Z,7.15
2023-05-05T15:45:48.936Z,4.20
2023-05-05T15:48:38.695Z,4.05
2023-05-05T15:51:26.332Z,7.30
2023-05-05T15:54:17.837Z,4.32
2023-05-05T15:57:05.561Z,4.22
2023-05-05T15:59:57.472Z,4.18
2023-05-05T16:02:46.637Z,3.72
2023-05-05T16:05:37.643Z,4.55
2023-05-05T16:08:26.081Z,3.83
2023-05-05T16:11:26.924Z,5.43
2023-05-05T16:14:18.479Z,3.92
2023-05-05T16:17:07.714Z,5.13
2023-05-05T16:20:00.226Z,8.90
2023-05-05T16:22:47.581Z,6.07
2023-05-05T16:25:35.090Z,5.18
2023-05-05T16:28:22.932Z,4.50
2023-05-05T16:31:12.785Z,4.55
2023-05-05T16:34:02.594Z,4.72
2023-05-05T16:36:53.357Z,8.95
2023-05-05T16:39:41.597Z,7.88
2023-05-05T16:42:29.010Z,5.45
2023-05-05T16:45:16.701Z,7.80
2023-05-05T16:48:09.093Z,7.38
2023-05-05T16:50:59.763Z,7.40
2023-05-05T16:53:49.229Z,9.48
2023-05-05T16:56:41.225Z,14.13
2023-05-05T16:59:30.357Z,7.50
2023-05-05T17:02:23.734Z,10.98
2023-05-05T17:08:21.257Z,9.48
2023-05-05T17:11:30.846Z,9.25
2023-05-05T17:14:18.815Z,9.63
2023-05-05T17:17:07.271Z,10.07
2023-05-05T17:19:54.997Z,8.73
2023-05-05T17:22:46.962Z,8.32
2023-05-05T17:25:34.771Z,8.35
2023-05-05T17:28:24.004Z,9.95
2023-05-05T17:31:11.441Z,9.05
2023-05-05T17:33:58.612Z,9.18
2023-05-05T17:36:46.077Z,8.27
2023-05-05T17:39:33.739Z,7.45
2023-05-05T17:42:23.149Z,10.77
2023-05-05T17:45:13.007Z,11.25
2023-05-05T17:48:21.784Z,13.13
2023-05-05T17:51:09.991Z,26.50
2023-05-05T17:53:58.771Z,14.48
2023-05-05T17:56:45.874Z,12.40
2023-05-05T17:59:36.759Z,10.45
2023-05-05T18:02:30.356Z,8.60
2023-05-05T18:05:18.175Z,11.73
2023-05-05T18:08:06.619Z,10.85
2023-05-05T18:10:54.552Z,12.75
2023-05-05T18:13:49.315Z,9.55
2023-05-05T18:16:40.066Z,10.68
2023-05-05T18:19:28.987Z,14.25
2023-05-05T18:22:16.567Z,9.77
2023-05-05T18:25:08.032Z,9.65
2023-05-05T18:28:02.437Z,10.88
2023-05-05T18:30:50.647Z,11.45
2023-05-05T18:33:40.201Z,11.65
2023-05-05T18:36:34.152Z,15.65
2023-05-05T18:39:21.701Z,12.02
2023-05-05T18:42:09.060Z,13.88
2023-05-05T18:44:56.678Z,12.02
2023-05-05T18:47:44.996Z,13.52
2023-05-05T18:50:34.814Z,13.65
2023-05-05T18:53:27.571Z,13.13
2023-05-05T18:56:25.636Z,17.63
2023-05-05T18:59:13.939Z,15.13
2023-05-05T19:02:04.422Z,15.13
2023-05-05T19:04:52.293Z,15.57
2023-05-05T19:07:42.276Z,15.52
2023-05-05T19:10:31.021Z,19.90
2023-05-05T19:13:24.813Z,16.35
2023-05-05T19:16:15.882Z,19.65
2023-05-05T19:19:20.572Z,16.67
2023-05-05T19:22:10.491Z,14.55
2023-05-05T19:24:58.409Z,16.95
2023-05-05T19:28:01.761Z,18.27
2023-05-05T19:30:56.671Z,15.48
2023-05-05T19:33:45.786Z,17.85
2023-05-05T19:36:34.485Z,16.77
2023-05-05T19:39:24.680Z,14.27
2023-05-05T19:42:13.497Z,17.75
2023-05-05T19:45:02.792Z,17.00
2023-05-05T19:47:50.387Z,14.88
2023-05-05T19:50:41.417Z,15.15
2023-05-05T19:53:29.460Z,18.60
2023-05-05T19:56:17.267Z,14.80
2023-05-05T19:59:06.762Z,15.63
2023-05-05T20:01:56.332Z,20.67
2023-05-05T20:04:46.156Z,20.17
2023-05-05T20:07:33.368Z,20.52
2023-05-05T20:10:22.024Z,20.33
2023-05-05T20:13:09.450Z,19.75
2023-05-05T20:15:57.358Z,17.90
2023-05-05T20:18:46.312Z,20.70
2023-05-05T20:21:34.998Z,16.40
2023-05-05T20:24:23.274Z,22.30
2023-05-05T20:27:10.967Z,22.95
2023-05-05T20:30:01.530Z,21.98
2023-05-05T20:32:49.010Z,21.38
2023-05-05T20:35:39.212Z,21.58
2023-05-05T20:38:27.976Z,18.42
2023-05-05T20:41:15.481Z,17.63
2023-05-05T20:44:03.266Z,25.10
2023-05-05T20:46:54.237Z,16.30
2023-05-05T20:49:44.168Z,17.90
2023-05-05T20:52:40.485Z,18.05
2023-05-05T20:55:42.806Z,15.15
2023-05-05T20:58:30.460Z,15.30
2023-05-05T21:01:30.475Z,18.85
2023-05-05T21:04:17.985Z,16.60
2023-05-05T21:07:05.693Z,14.63
2023-05-05T21:09:57.983Z,18.98
2023-05-05T21:12:52.838Z,25.02
2023-05-05T21:15:43.797Z,22.42
2023-05-05T21:18:34.430Z,17.63
2023-05-05T21:21:24.055Z,14.68
2023-05-05T21:24:14.002Z,21.65
2023-05-05T21:27:03.659Z,23.38
2023-05-05T21:29:51.196Z,20.55
2023-05-05T21:32:44.290Z,19.63
2023-05-05T21:35:31.880Z,17.85
2023-05-05T21:38:19.611Z,20.00
2023-05-05T21:41:10.342Z,16.98
2023-05-05T21:43:59.588Z,18.38
2023-05-05T21:46:50.290Z,16.35
2023-05-05T21:49:38.618Z,18.13
2023-05-05T21:52:26.247Z,16.27
2023-05-05T21:55:13.867Z,20.45
2023-05-05T21:58:01.623Z,16.00
2023-05-05T22:00:51.894Z,17.10
2023-05-05T22:03:39.355Z,14.88
2023-05-05T22:06:28.207Z,19.48
2023-05-05T22:09:17.712Z,17.55
2023-05-05T22:12:05.901Z,15.90
2023-05-05T22:14:53.619Z,16.45
2023-05-05T22:17:46.590Z,17.40
2023-05-05T22:20:35.865Z,16.90
2023-05-05T22:23:23.975Z,17.83
2023-05-05T22:26:12.414Z,17.40
2023-05-05T22:29:00.462Z,21.65
2023-05-05T22:31:51.825Z,21.27
2023-05-05T22:34:44.481Z,18.90
2023-05-05T22:37:34.937Z,18.13
2023-05-05T22:40:22.503Z,20.98
2023-05-05T22:43:09.838Z,20.63
2023-05-05T22:45:57.565Z,20.27
2023-05-05T22:48:44.868Z,23.52
2023-05-05T22:51:34.336Z,23.20
2023-05-05T22:54:21.851Z,19.55
2023-05-05T22:57:09.655Z,23.15
2023-05-05T23:00:00.735Z,22.33
2023-05-05T23:02:49.127Z,19.75
2023-05-05T23:05:38.876Z,20.55
2023-05-05T23:08:27.841Z,17.65
2023-05-05T23:11:15.420Z,18.25
2023-05-05T23:14:03.116Z,19.75
2023-05-05T23:16:50.647Z,20.98
2023-05-05T23:19:43.707Z,21.67
2023-05-05T23:22:34.673Z,19.17
2023-05-05T23:25:23.598Z,18.02
2023-05-05T23:28:11.407Z,21.05
2023-05-05T23:31:03.250Z,21.92
2023-05-05T23:33:50.720Z,19.40
2023-05-05T23:36:43.166Z,21.30
2023-05-05T23:39:36.953Z,20.65
2023-05-05T23:42:25.892Z,21.05
2023-05-05T23:45:13.900Z,19.83
2023-05-05T23:48:04.584Z,20.30
2023-05-05T23:50:53.091Z,22.50
2023-05-05T23:53:40.430Z,20.58
2023-05-05T23:56:28.877Z,24.52
2023-05-05T23:59:17.992Z,24.55
